createdAt,value
2022-11-19T00:00:12.592Z,77.41
2022-11-19T00:03:16.527Z,77.81
2022-11-19T00:06:21.674Z,77.13
2022-11-19T00:09:24.298Z,76.73
2022-11-19T00:12:45.578Z,75.32
2022-11-19T00:15:48.050Z,76.19
2022-11-19T00:18:51.252Z,76.59
2022-11-19T00:21:53.815Z,76.50
2022-11-19T00:24:56.503Z,75.84
2022-11-19T00:27:59.632Z,74.92
2022-11-19T00:31:13.130Z,75.50
2022-11-19T00:34:15.848Z,75.40
2022-11-19T00:37:18.689Z,75.46
2022-11-19T00:40:21.179Z,75.88
2022-11-19T00:43:43.416Z,75.54
2022-11-19T00:46:45.789Z,75.45
2022-11-19T00:49:48.672Z,74.52
2022-11-19T00:52:51.312Z,74.75
2022-11-19T00:55:54.222Z,75.08
2022-11-19T00:58:57.006Z,75.13
2022-11-19T01:01:59.898Z,74.76
2022-11-19T01:05:02.882Z,74.04
2022-11-19T01:08:05.747Z,74.76
2022-11-19T01:11:17.890Z,75.11
2022-11-19T01:14:20.697Z,74.36
2022-11-19T01:17:23.231Z,74.46
2022-11-19T01:20:26.628Z,73.86
2022-11-19T01:23:29.296Z,72.32
2022-11-19T01:26:31.836Z,74.19
2022-11-19T01:29:34.506Z,73.00
2022-11-19T01:32:37.115Z,73.31
2022-11-19T01:35:39.906Z,74.29
2022-11-19T01:38:43.312Z,74.13
2022-11-19T01:41:45.818Z,74.42
2022-11-19T01:45:08.046Z,73.18
2022-11-19T01:48:22.900Z,74.54
2022-11-19T01:52:00.747Z,74.12
2022-11-19T01:55:03.757Z,72.95
2022-11-19T01:58:07.807Z,72.62
2022-11-19T02:01:11.123Z,74.02
2022-11-19T02:04:16.979Z,72.56
2022-11-19T02:07:24.682Z,73.96
2022-11-19T02:11:03.682Z,72.85
2022-11-19T02:14:18.177Z,73.29
2022-11-19T02:17:26.849Z,72.69
2022-11-19T02:20:59.791Z,72.91
2022-11-19T02:24:33.060Z,72.88
2022-11-19T02:28:11.179Z,73.75
2022-11-19T02:31:24.715Z,72.58
2022-11-19T02:34:39.119Z,72.21
2022-11-19T02:37:49.936Z,72.88
2022-11-19T02:41:26.261Z,72.50
2022-11-19T02:44:50.216Z,73.06
2022-11-19T02:48:01.248Z,71.42
2022-11-19T02:51:05.087Z,72.21
2022-11-19T02:54:08.616Z,72.17
2022-11-19T02:57:13.562Z,72.75
2022-11-19T03:00:35.683Z,72.75
2022-11-19T03:03:57.100Z,72.37
2022-11-19T03:07:13.661Z,71.33
2022-11-19T03:10:21.308Z,71.12
2022-11-19T03:13:45.254Z,71.85
2022-11-19T03:17:08.539Z,70.87
2022-11-19T03:20:29.010Z,71.62
2022-11-19T03:23:43.644Z,71.55
2022-11-19T03:26:53.567Z,71.32
2022-11-19T03:29:58.516Z,71.65
2022-11-19T03:33:07.294Z,71.89
2022-11-19T03:36:24.322Z,70.95
2022-11-19T03:39:27.458Z,70.53
2022-11-19T03:42:31.777Z,71.09
2022-11-19T03:45:39.472Z,69.81
2022-11-19T03:48:47.410Z,70.45
2022-11-19T03:52:04.709Z,70.03
2022-11-19T03:55:07.843Z,69.11
2022-11-19T03:58:11.296Z,69.33
2022-11-19T04:01:14.851Z,70.65
2022-11-19T04:04:35.999Z,70.33
2022-11-19T04:07:39.133Z,70.03
2022-11-19T04:10:41.641Z,70.09
2022-11-19T04:13:44.679Z,69.36
2022-11-19T04:16:55.138Z,70.87
2022-11-19T04:19:57.796Z,69.24
2022-11-19T04:23:00.260Z,69.99
2022-11-19T04:26:03.543Z,69.39
2022-11-19T04:29:06.015Z,69.06
2022-11-19T04:32:08.964Z,68.10
2022-11-19T04:35:11.536Z,68.93
2022-11-19T04:38:14.247Z,69.18
2022-11-19T04:41:17.248Z,69.64
2022-11-19T04:44:19.899Z,69.01
2022-11-19T04:47:22.690Z,69.24
2022-11-19T04:50:25.596Z,69.29
2022-11-19T04:53:28.131Z,68.35
2022-11-19T04:56:31.168Z,69.62
2022-11-19T04:59:33.588Z,69.16
2022-11-19T05:02:36.590Z,67.99
2022-11-19T05:05:39.442Z,69.34
2022-11-19T05:08:42.519Z,68.81
2022-11-19T05:11:45.175Z,68.39
2022-11-19T05:14:47.748Z,70.42
2022-11-19T05:17:50.430Z,68.92
2022-11-19T05:20:53.574Z,68.62
2022-11-19T05:23:56.127Z,68.89
2022-11-19T05:26:59.480Z,68.64
2022-11-19T05:30:01.975Z,68.40
2022-11-19T05:33:05.122Z,68.12
2022-11-19T05:36:07.987Z,70.09
2022-11-19T05:39:10.911Z,68.90
2022-11-19T05:42:13.758Z,69.92
2022-11-19T05:45:16.609Z,69.85
2022-11-19T05:48:19.663Z,70.31
2022-11-19T05:51:22.515Z,70.70
2022-11-19T05:54:24.993Z,71.53
2022-11-19T05:57:28.204Z,72.28
2022-11-19T06:00:30.691Z,73.45
2022-11-19T06:03:33.498Z,73.79
2022-11-19T06:06:36.326Z,74.53
2022-11-19T06:09:39.067Z,74.18
2022-11-19T06:12:45.748Z,75.26
2022-11-19T06:15:48.854Z,80.82
2022-11-19T06:18:51.622Z,80.61
2022-11-19T06:21:54.656Z,79.27
2022-11-19T06:24:57.141Z,80.64
2022-11-19T06:28:00.555Z,80.64
2022-11-19T06:31:03.562Z,81.63
2022-11-19T06:34:06.627Z,83.27
2022-11-19T06:37:09.624Z,83.32
2022-11-19T06:40:13.204Z,84.01
2022-11-19T06:43:15.996Z,84.63
2022-11-19T06:46:18.750Z,85.33
2022-11-19T06:49:22.223Z,85.18
2022-11-19T06:52:26.078Z,84.46
2022-11-19T06:55:28.532Z,86.45
2022-11-19T06:58:31.878Z,84.30
2022-11-19T07:01:34.361Z,84.30
2022-11-19T07:04:37.392Z,84.42
2022-11-19T07:07:40.129Z,83.47
2022-11-19T07:10:43.644Z,83.57
2022-11-19T07:13:58.653Z,84.55
2022-11-19T07:17:01.698Z,84.40
2022-11-19T07:20:06.445Z,84.25
2022-11-19T07:23:10.816Z,83.06
2022-11-19T07:26:14.085Z,81.87
2022-11-19T07:29:17.492Z,81.83
2022-11-19T07:32:20.236Z,81.64
2022-11-19T07:35:23.073Z,81.59
2022-11-19T07:38:25.848Z,78.82
2022-11-19T07:41:47.419Z,79.34
2022-11-19T07:44:54.651Z,79.87
2022-11-19T07:47:57.743Z,79.86
2022-11-19T07:51:00.462Z,79.32
2022-11-19T07:54:03.377Z,79.14
2022-11-19T07:57:05.834Z,79.51
2022-11-19T08:00:09.526Z,78.07
2022-11-19T08:03:17.850Z,77.94
2022-11-19T08:06:21.723Z,78.63
2022-11-19T08:09:24.434Z,77.54
2022-11-19T08:12:27.184Z,78.11
2022-11-19T08:15:31.483Z,78.02
2022-11-19T08:18:34.451Z,78.44
2022-11-19T08:21:41.603Z,78.54
2022-11-19T08:24:44.992Z,78.80
2022-11-19T08:27:47.511Z,78.72
2022-11-19T08:30:50.516Z,81.00
2022-11-19T08:33:53.351Z,79.98
2022-11-19T08:36:56.146Z,81.59
2022-11-19T08:39:58.948Z,82.87
2022-11-19T08:43:01.953Z,82.45
2022-11-19T08:46:04.949Z,83.67
2022-11-19T08:49:12.303Z,84.81
2022-11-19T08:52:15.549Z,85.07
2022-11-19T08:55:18.583Z,85.41
2022-11-19T08:58:21.079Z,85.71
2022-11-19T09:01:24.196Z,85.38
2022-11-19T09:04:26.708Z,85.73
2022-11-19T09:07:29.553Z,87.18
2022-11-19T09:10:32.239Z,87.09
2022-11-19T09:13:35.342Z,86.78
2022-11-19T09:16:38.205Z,87.38
2022-11-19T09:19:41.338Z,88.07
2022-11-19T09:22:44.066Z,88.16
2022-11-19T09:25:57.394Z,87.35
2022-11-19T09:28:59.822Z,87.79
2022-11-19T09:32:03.090Z,87.33
2022-11-19T09:35:05.988Z,88.18
2022-11-19T09:38:08.834Z,87.36
2022-11-19T09:41:48.843Z,88.11
2022-11-19T09:45:09.887Z,88.23
2022-11-19T09:48:32.745Z,86.72
2022-11-19T09:51:39.975Z,86.52
2022-11-19T09:54:50.686Z,85.93
2022-11-19T09:57:56.264Z,86.93
2022-11-19T10:01:00.122Z,88.23
2022-11-19T10:04:04.655Z,87.99
2022-11-19T10:07:28.355Z,85.43
2022-11-19T10:10:43.089Z,86.47
2022-11-19T10:14:03.338Z,86.20
2022-11-19T10:17:16.190Z,86.15
2022-11-19T10:20:41.758Z,85.53
2022-11-19T10:24:18.546Z,85.68
2022-11-19T10:27:43.339Z,84.88
2022-11-19T10:30:52.518Z,84.40
2022-11-19T10:34:02.908Z,84.29
2022-11-19T10:37:11.895Z,84.00
2022-11-19T10:40:19.968Z,84.89
2022-11-19T10:43:42.298Z,84.23
2022-11-19T10:46:48.395Z,83.78
2022-11-19T10:49:55.647Z,84.03
2022-11-19T10:53:07.243Z,84.19
2022-11-19T10:56:17.535Z,83.94
2022-11-19T10:59:24.384Z,83.49
2022-11-19T11:02:59.883Z,84.84
2022-11-19T11:06:06.705Z,84.36
2022-11-19T11:09:14.167Z,83.74
2022-11-19T11:12:44.177Z,84.89
2022-11-19T11:15:50.942Z,83.04
2022-11-19T11:18:56.420Z,82.21
2022-11-19T11:21:59.974Z,82.01
2022-11-19T11:25:07.361Z,79.08
2022-11-19T11:28:20.691Z,81.08
2022-11-19T11:31:38.569Z,81.30
2022-11-19T11:34:43.885Z,82.91
2022-11-19T11:37:48.108Z,83.89
2022-11-19T11:41:53.308Z,83.27
2022-11-19T11:44:33.554Z,83.62
2022-11-19T11:47:39.867Z,82.83
2022-11-19T11:50:45.880Z,81.67
2022-11-19T11:54:03.776Z,82.89
2022-11-19T11:57:18.071Z,83.90
2022-11-19T12:00:34.847Z,84.34
2022-11-19T12:03:55.621Z,83.65
2022-11-19T12:07:04.631Z,84.26
2022-11-19T12:10:19.040Z,84.43
2022-11-19T12:13:37.339Z,86.45
2022-11-19T12:16:51.838Z,84.92
2022-11-19T12:20:13.307Z,84.98
2022-11-19T12:23:58.139Z,83.28
2022-11-19T12:27:28.140Z,85.00
2022-11-19T12:30:59.671Z,86.67
2022-11-19T12:34:24.392Z,86.00
2022-11-19T12:38:10.256Z,85.23
2022-11-19T12:41:22.027Z,83.30
2022-11-19T12:44:57.102Z,83.40
2022-11-19T12:48:40.536Z,85.94
2022-11-19T12:52:07.295Z,85.81
2022-11-19T12:55:22.252Z,85.26
2022-11-19T12:58:39.783Z,84.75
2022-11-19T13:01:45.491Z,84.20
2022-11-19T13:05:02.417Z,84.19
2022-11-19T13:08:18.615Z,84.86
2022-11-19T13:11:28.563Z,83.34
2022-11-19T13:14:39.870Z,82.23
2022-11-19T13:17:47.182Z,82.51
2022-11-19T13:20:57.292Z,81.39
2022-11-19T13:24:18.990Z,81.66
2022-11-19T13:27:26.138Z,82.50
2022-11-19T13:30:32.162Z,82.84
2022-11-19T13:33:44.108Z,81.71
2022-11-19T13:36:58.375Z,83.51
2022-11-19T13:40:06.762Z,83.39
2022-11-19T13:43:33.154Z,82.97
2022-11-19T13:46:41.220Z,84.79
2022-11-19T13:49:53.551Z,83.12
2022-11-19T13:53:07.393Z,83.67
2022-11-19T13:56:15.562Z,82.24
2022-11-19T13:59:43.064Z,83.13
2022-11-19T14:03:09.623Z,83.50
2022-11-19T14:06:15.483Z,83.82
2022-11-19T14:09:33.630Z,82.95
2022-11-19T14:12:57.404Z,83.62
2022-11-19T14:16:34.118Z,81.07
2022-11-19T14:20:13.568Z,82.49
2022-11-19T14:24:04.029Z,84.72
2022-11-19T14:27:32.148Z,83.92
2022-11-19T14:31:00.715Z,84.38
2022-11-19T14:34:04.723Z,83.67
2022-11-19T14:37:47.768Z,84.26
2022-11-19T14:41:04.272Z,82.70
2022-11-19T14:44:26.955Z,84.36
2022-11-19T14:47:34.588Z,81.96
2022-11-19T14:50:37.581Z,83.66
2022-11-19T14:53:53.735Z,82.98
2022-11-19T14:57:32.813Z,81.41
2022-11-19T15:00:38.751Z,82.19
2022-11-19T15:03:48.418Z,82.29
2022-11-19T15:06:52.300Z,82.66
2022-11-19T15:10:10.317Z,81.85
2022-11-19T15:13:22.639Z,82.49
2022-11-19T15:16:28.823Z,81.96
2022-11-19T15:19:56.950Z,82.88
2022-11-19T15:23:14.787Z,82.15
2022-11-19T15:26:34.827Z,82.15
2022-11-19T15:30:14.907Z,83.77
2022-11-19T15:33:46.769Z,82.06
2022-11-19T15:36:52.867Z,80.19
2022-11-19T15:39:57.625Z,79.64
2022-11-19T15:43:22.526Z,79.82
2022-11-19T15:46:49.747Z,80.13
2022-11-19T15:49:53.642Z,80.48
2022-11-19T15:53:00.402Z,79.81
2022-11-19T15:56:07.434Z,79.17
2022-11-19T15:59:13.351Z,79.82
2022-11-19T16:02:20.447Z,80.80
2022-11-19T16:05:30.431Z,81.36
2022-11-19T16:08:33.580Z,80.21
2022-11-19T16:11:56.810Z,81.55
2022-11-19T16:15:17.954Z,81.97
2022-11-19T16:18:20.653Z,81.00
2022-11-19T16:21:35.910Z,81.02
2022-11-19T16:24:57.316Z,81.15
2022-11-19T16:28:06.796Z,81.23
2022-11-19T16:31:13.347Z,80.74
2022-11-19T16:34:45.810Z,80.90
2022-11-19T16:37:49.614Z,80.62
2022-11-19T16:41:12.820Z,80.47
2022-11-19T16:44:19.189Z,80.42
2022-11-19T16:47:30.401Z,79.93
2022-11-19T16:50:45.323Z,79.46
2022-11-19T16:53:49.127Z,78.58
2022-11-19T16:56:51.997Z,77.91
2022-11-19T16:59:58.296Z,77.99
2022-11-19T17:03:17.326Z,77.37
2022-11-19T17:06:24.278Z,77.89
2022-11-19T17:09:41.875Z,78.45
2022-11-19T17:12:51.684Z,78.83
2022-11-19T17:15:54.398Z,79.67
2022-11-19T17:18:57.158Z,79.80
2022-11-19T17:22:15.852Z,80.17
2022-11-19T17:25:18.492Z,80.50
2022-11-19T17:28:28.568Z,80.10
2022-11-19T17:31:31.612Z,80.43
2022-11-19T17:34:44.714Z,80.67
2022-11-19T17:37:47.971Z,81.51
2022-11-19T17:40:53.713Z,82.03
2022-11-19T17:44:15.395Z,83.07
2022-11-19T17:47:23.841Z,82.80
2022-11-19T17:50:27.143Z,82.34
2022-11-19T17:53:30.135Z,82.60
2022-11-19T17:56:32.751Z,82.47
2022-11-19T17:59:35.746Z,82.64
2022-11-19T18:02:38.599Z,82.64
2022-11-19T18:05:48.187Z,83.30
2022-11-19T18:08:51.351Z,83.31
2022-11-19T18:11:54.627Z,82.98
2022-11-19T18:15:00.877Z,81.96
2022-11-19T18:18:05.007Z,82.57
2022-11-19T18:21:11.285Z,82.66
2022-11-19T18:24:14.350Z,81.65
2022-11-19T18:27:17.650Z,83.09
2022-11-19T18:30:20.316Z,83.59
2022-11-19T18:33:23.394Z,83.43
2022-11-19T18:36:26.457Z,83.54
2022-11-19T18:39:29.662Z,82.11
2022-11-19T18:42:32.708Z,82.04
2022-11-19T18:45:35.447Z,81.33
2022-11-19T18:48:39.500Z,82.17
2022-11-19T18:51:44.966Z,82.38
2022-11-19T18:54:47.973Z,82.26
2022-11-19T18:57:51.130Z,82.98
2022-11-19T19:00:54.031Z,81.69
2022-11-19T19:03:56.772Z,81.96
2022-11-19T19:06:59.960Z,82.16
2022-11-19T19:10:03.947Z,81.50
2022-11-19T19:13:07.235Z,79.77
2022-11-19T19:16:10.568Z,79.40
2022-11-19T19:19:17.463Z,79.00
2022-11-19T19:22:20.784Z,79.41
2022-11-19T19:25:23.769Z,78.90
2022-11-19T19:28:26.669Z,79.16
2022-11-19T19:31:29.788Z,79.71
2022-11-19T19:34:32.598Z,79.42
2022-11-19T19:37:35.898Z,80.33
2022-11-19T19:40:38.684Z,79.31
2022-11-19T19:43:41.668Z,79.96
2022-11-19T19:46:47.554Z,79.26
2022-11-19T19:49:51.379Z,79.99
2022-11-19T19:52:54.132Z,80.85
2022-11-19T19:56:11.920Z,80.74
2022-11-19T19:59:15.187Z,80.48
2022-11-19T20:02:18.336Z,81.13
2022-11-19T20:05:21.533Z,80.91
2022-11-19T20:08:24.983Z,80.97
2022-11-19T20:11:27.706Z,80.72
2022-11-19T20:14:31.239Z,79.90
2022-11-19T20:17:33.721Z,79.53
2022-11-19T20:20:36.929Z,80.23
2022-11-19T20:23:41.560Z,80.62
2022-11-19T20:26:44.579Z,80.74
2022-11-19T20:29:47.663Z,80.48
2022-11-19T20:32:50.260Z,81.36
2022-11-19T20:35:53.353Z,80.44
2022-11-19T20:38:59.553Z,80.94
2022-11-19T20:42:20.916Z,81.12
2022-11-19T20:45:23.936Z,81.71
2022-11-19T20:48:26.632Z,81.45
2022-11-19T20:51:33.163Z,82.09
2022-11-19T20:54:36.192Z,81.44
2022-11-19T20:57:38.936Z,81.57
2022-11-19T21:00:41.835Z,82.56
2022-11-19T21:03:44.808Z,81.70
2022-11-19T21:06:49.807Z,82.97
2022-11-19T21:09:53.094Z,83.22
2022-11-19T21:13:01.488Z,83.70
2022-11-19T21:16:14.778Z,83.08
2022-11-19T21:19:17.232Z,83.38
2022-11-19T21:22:20.002Z,83.21
2022-11-19T21:25:26.230Z,83.75
2022-11-19T21:28:29.595Z,82.89
2022-11-19T21:31:48.398Z,83.41
2022-11-19T21:34:51.028Z,83.69
2022-11-19T21:37:53.847Z,82.36
2022-11-19T21:40:57.130Z,82.71
2022-11-19T21:44:02.352Z,82.38
2022-11-19T21:47:05.292Z,83.78
2022-11-19T21:50:08.174Z,82.27
2022-11-19T21:53:12.225Z,82.94
2022-11-19T21:56:14.847Z,82.56
2022-11-19T21:59:17.433Z,82.38
2022-11-19T22:02:20.230Z,83.40
2022-11-19T22:05:23.411Z,83.13
2022-11-19T22:08:36.178Z,83.68
2022-11-19T22:11:39.279Z,82.89
2022-11-19T22:14:41.779Z,83.89
2022-11-19T22:17:44.636Z,83.31
2022-11-19T22:20:47.123Z,82.87
2022-11-19T22:23:49.908Z,83.11
2022-11-19T22:26:52.764Z,83.79
2022-11-19T22:29:56.697Z,83.80
2022-11-19T22:32:59.586Z,84.22
2022-11-19T22:36:09.450Z,83.49
2022-11-19T22:39:13.590Z,83.88
2022-11-19T22:42:16.683Z,84.54
2022-11-19T22:45:19.162Z,84.96
2022-11-19T22:48:21.900Z,84.52
2022-11-19T22:51:25.906Z,83.87
2022-11-19T22:54:29.386Z,84.81
2022-11-19T22:57:32.125Z,84.58
2022-11-19T23:00:43.241Z,84.52
2022-11-19T23:03:46.575Z,84.05
2022-11-19T23:06:49.249Z,84.52
2022-11-19T23:09:51.800Z,85.08
2022-11-19T23:13:13.357Z,84.35
2022-11-19T23:16:19.035Z,84.15
2022-11-19T23:19:22.809Z,83.52
2022-11-19T23:22:25.531Z,83.97
2022-11-19T23:25:28.413Z,84.29
2022-11-19T23:28:33.013Z,84.14
2022-11-19T23:31:38.906Z,83.51
2022-11-19T23:34:41.558Z,83.70
2022-11-19T23:37:44.316Z,84.24
2022-11-19T23:40:47.364Z,84.28
2022-11-19T23:43:51.574Z,83.96
2022-11-19T23:46:54.024Z,83.95
2022-11-19T23:49:57.009Z,83.54
2022-11-19T23:52:59.437Z,83.37
2022-11-19T23:56:03.386Z,83.84
2022-11-19T23:59:06.462Z,83.94
